Time;durP1;ratioP1;P1;durP2;ratioP2;P2;SDS_P1;SDS_P2;PMS_P1;PMS_P2;Temp;Humidity;BMP_temperature;BMP_pressure;BME280_temperature;BME280_humidity;BME280_pressure;Samples;Min_cycle;Max_cycle;Signal;HPM_P1;HPM_P2
2024/04/05 00:00:17;;;;;;;5.25;2.20;;;;;;;16.32;46.47;100095.19;5078787;28;20074;-63
2024/04/05 00:02:46;;;;;;;3.83;2.10;;;;;;;16.25;45.97;100099.66;5080170;28;20223;-63
2024/04/05 00:05:13;;;;;;;3.83;2.00;;;;;;;16.13;46.62;100099.31;5077978;28;20051;-64
2024/04/05 00:07:39;;;;;;;4.72;2.22;;;;;;;15.99;47.22;100094.84;5081294;28;20073;-63
2024/04/05 00:10:07;;;;;;;2.55;1.95;;;;;;;16.09;47.12;100086.53;5078955;28;20040;-64
2024/04/05 00:12:33;;;;;;;4.63;2.63;;;;;;;16.11;46.95;100084.50;5079934;28;20246;-63
2024/04/05 00:14:59;;;;;;;6.15;2.67;;;;;;;16.12;46.97;100092.31;5078327;28;20068;-64
2024/04/05 00:17:25;;;;;;;5.78;2.92;;;;;;;16.17;46.82;100095.25;5079815;28;20044;-63
2024/04/05 00:19:52;;;;;;;3.70;2.28;;;;;;;16.02;47.19;100093.66;5078463;28;20198;-63
2024/04/05 00:22:18;;;;;;;4.10;2.45;;;;;;;15.85;47.37;100080.53;5079427;28;20324;-64
2024/04/05 00:24:44;;;;;;;3.30;2.45;;;;;;;15.99;47.12;100100.19;5078773;28;20219;-63
2024/04/05 00:27:09;;;;;;;3.92;1.80;;;;;;;15.72;47.62;100090.22;5079012;28;20037;-63
2024/04/05 00:29:36;;;;;;;4.07;1.90;;;;;;;15.62;47.96;100088.66;5078263;28;20200;-64
2024/04/05 00:32:02;;;;;;;2.88;1.92;;;;;;;15.49;48.09;100082.28;5078668;28;20221;-63
2024/04/05 00:34:28;;;;;;;3.78;2.00;;;;;;;15.32;48.25;100086.97;5077946;28;20353;-63
2024/04/05 00:36:53;;;;;;;4.07;2.30;;;;;;;15.31;48.42;100072.81;5078497;28;20020;-63
2024/04/05 00:39:19;;;;;;;3.80;1.88;;;;;;;15.10;48.82;100087.88;5078473;28;20037;-63
2024/04/05 00:41:44;;;;;;;2.78;1.80;;;;;;;14.86;49.48;100086.28;5077436;28;20040;-63
2024/04/05 00:44:10;;;;;;;4.13;1.75;;;;;;;14.76;50.25;100077.72;5079806;28;20098;-63
2024/04/05 00:46:36;;;;;;;3.88;1.75;;;;;;;15.08;49.56;100085.41;5077394;28;20032;-63
2024/04/05 00:49:02;;;;;;;4.03;1.80;;;;;;;15.05;49.85;100088.44;5078880;28;20358;-63
2024/04/05 00:51:28;;;;;;;2.85;2.00;;;;;;;14.81;50.17;100078.84;5077572;28;20036;-63
2024/04/05 00:53:55;;;;;;;2.90;2.45;;;;;;;14.99;49.66;100075.84;5078913;28;20223;-63
2024/04/05 00:56:22;;;;;;;3.38;2.17;;;;;;;15.12;49.44;100081.34;5077806;28;20384;-63
2024/04/05 00:58:48;;;;;;;3.70;2.10;;;;;;;15.12;49.64;100081.34;5079175;28;20344;-62
2024/04/05 01:01:15;;;;;;;3.60;1.98;;;;;;;15.04;49.38;100083.28;5078366;28;20224;-63
2024/04/05 01:03:40;;;;;;;3.97;1.90;;;;;;;14.95;49.90;100091.38;5079083;28;20107;-63
2024/04/05 01:06:06;;;;;;;2.95;1.65;;;;;;;14.67;50.29;100093.78;5077548;28;20051;-63
2024/04/05 01:08:32;;;;;;;2.85;1.40;;;;;;;14.73;50.38;100088.75;5078953;28;20032;-63
2024/04/05 01:10:57;;;;;;;3.28;1.70;;;;;;;14.23;51.51;100093.56;5077946;28;20032;-63
2024/04/05 01:13:23;;;;;;;3.17;1.70;;;;;;;14.18;52.00;100092.44;5077732;28;20104;-63
2024/04/05 01:15:48;;;;;;;3.22;1.60;;;;;;;14.12;52.35;100090.50;5078594;28;20051;-63
2024/04/05 01:18:14;;;;;;;5.10;1.80;;;;;;;14.24;51.85;100083.75;5076939;28;20084;-64
2024/04/05 01:20:43;;;;;;;3.15;1.75;;;;;;;14.33;51.81;100094.16;5079816;28;20230;-63
2024/04/05 01:23:12;;;;;;;2.58;1.60;;;;;;;14.16;51.90;100091.81;5077331;28;20040;-63
2024/04/05 01:25:37;;;;;;;3.15;1.60;;;;;;;14.33;51.45;100093.34;5077932;28;20040;-64
2024/04/05 01:28:10;;;;;;;4.00;1.70;;;;;;;14.19;52.20;100094.09;5077028;28;20056;-62
2024/04/05 01:30:36;;;;;;;2.30;1.92;;;;;;;14.20;52.14;100104.59;5078639;28;20348;-63
2024/04/05 01:33:02;;;;;;;3.72;2.00;;;;;;;13.73;54.13;100104.69;5077218;28;20037;-63
2024/04/05 01:35:28;;;;;;;2.28;1.92;;;;;;;13.68;54.54;100099.88;5078782;28;20044;-63
2024/04/05 01:37:54;;;;;;;3.22;1.92;;;;;;;13.69;54.20;100106.88;5077199;28;20028;-63
2024/04/05 01:40:20;;;;;;;3.03;1.60;;;;;;;13.50;55.26;100115.22;5078530;28;20258;-63
2024/04/05 01:42:46;;;;;;;3.30;2.08;;;;;;;13.06;56.85;100114.81;5078180;28;20105;-63
2024/04/05 01:45:11;;;;;;;3.90;1.70;;;;;;;13.50;55.70;100112.56;5075105;28;20044;-63
2024/04/05 01:47:37;;;;;;;2.17;1.70;;;;;;;13.61;55.24;100112.22;5076648;28;20038;-64
2024/04/05 01:50:03;;;;;;;2.40;1.80;;;;;;;13.62;55.16;100110.41;5078545;28;20044;-63
2024/04/05 01:52:29;;;;;;;2.65;2.10;;;;;;;13.81;54.51;100109.13;5077743;28;20043;-64
2024/04/05 01:54:55;;;;;;;3.10;2.00;;;;;;;13.73;54.47;100112.66;5078680;28;20037;-63
2024/04/05 01:57:21;;;;;;;3.60;1.40;;;;;;;13.59;55.33;100110.75;5076643;28;20258;-63
2024/04/05 01:59:47;;;;;;;2.97;1.55;;;;;;;13.79;54.51;100119.13;5079385;28;20032;-64
2024/04/05 02:02:13;;;;;;;2.55;1.70;;;;;;;13.87;54.14;100113.78;5077293;28;20036;-64
2024/04/05 02:04:38;;;;;;;3.70;1.95;;;;;;;13.97;54.01;100117.03;5079392;28;20210;-64
2024/04/05 02:07:04;;;;;;;2.10;1.90;;;;;;;14.09;53.57;100112.16;5077742;28;20028;-64
2024/04/05 02:09:30;;;;;;;2.28;1.83;;;;;;;14.05;53.82;100107.19;5079388;28;20089;-65
2024/04/05 02:11:55;;;;;;;3.78;1.90;;;;;;;14.12;53.46;100107.31;5077333;28;20049;-63
2024/04/05 02:14:21;;;;;;;3.03;2.05;;;;;;;14.21;53.37;100114.22;5078484;28;20028;-63
2024/04/05 02:16:46;;;;;;;4.82;1.70;;;;;;;14.01;53.92;100111.19;5076644;28;20086;-64
2024/04/05 02:19:12;;;;;;;4.20;1.52;;;;;;;14.09;53.80;100120.13;5078000;28;20032;-63
2024/04/05 02:21:37;;;;;;;2.22;1.70;;;;;;;14.29;52.97;100116.00;5076677;28;20334;-63
2024/04/05 02:24:03;;;;;;;2.03;1.83;;;;;;;14.44;52.62;100119.59;5078147;28;20200;-63
2024/04/05 02:26:28;;;;;;;2.95;1.60;;;;;;;14.56;52.36;100120.84;5076761;28;20342;-63
2024/04/05 02:28:54;;;;;;;2.25;1.45;;;;;;;14.57;52.17;100121.69;5077729;28;20046;-64
2024/04/05 02:31:19;;;;;;;4.07;1.75;;;;;;;14.55;52.18;100126.34;5078530;28;20078;-64
2024/04/05 02:33:45;;;;;;;4.90;1.90;;;;;;;14.51;52.15;100123.22;5076624;28;20036;-64
2024/04/05 02:36:10;;;;;;;3.05;2.47;;;;;;;14.45;52.09;100123.09;5078978;28;20241;-64
2024/04/05 02:38:36;;;;;;;5.93;2.65;;;;;;;14.33;52.58;100118.16;5076592;28;20040;-64
2024/04/05 02:41:04;;;;;;;7.32;4.10;;;;;;;14.32;52.74;100123.66;5077732;28;20330;-63
2024/04/05 02:43:29;;;;;;;7.20;3.50;;;;;;;14.29;52.90;100114.19;5076312;28;20440;-64
2024/04/05 02:45:55;;;;;;;3.40;2.03;;;;;;;14.24;52.94;100118.38;5077428;28;20044;-64
2024/04/05 02:48:20;;;;;;;2.22;1.65;;;;;;;14.19;53.12;100123.41;5075870;28;20044;-63
2024/04/05 02:50:46;;;;;;;3.65;2.15;;;;;;;14.14;52.86;100121.28;5077257;28;20058;-64
2024/04/05 02:53:12;;;;;;;3.97;1.83;;;;;;;14.07;53.06;100118.47;5075943;28;20368;-63
2024/04/05 02:55:37;;;;;;;3.63;2.25;;;;;;;14.03;53.17;100127.00;5076792;28;20119;-63
2024/04/05 02:58:03;;;;;;;2.30;2.05;;;;;;;14.02;53.29;100136.00;5079182;28;20048;-63
2024/04/05 03:00:28;;;;;;;3.72;2.40;;;;;;;13.84;53.43;100128.25;5080249;28;20041;-63
2024/04/05 03:02:54;;;;;;;4.97;4.00;;;;;;;13.71;54.07;100139.47;5080732;28;20035;-63
2024/04/05 03:05:19;;;;;;;6.30;2.17;;;;;;;13.56;54.88;100141.19;5080402;28;20044;-63
2024/04/05 03:07:45;;;;;;;4.25;1.77;;;;;;;13.46;55.40;100140.50;5082153;28;20230;-63
2024/04/05 03:10:10;;;;;;;2.83;1.90;;;;;;;13.53;55.27;100140.69;5080734;28;20231;-63
2024/04/05 03:12:36;;;;;;;3.63;1.92;;;;;;;13.35;55.59;100143.53;5081661;28;20326;-63
2024/04/05 03:15:02;;;;;;;4.10;1.90;;;;;;;13.37;55.15;100144.19;5080590;28;20378;-64
2024/04/05 03:17:27;;;;;;;2.63;1.58;;;;;;;13.01;56.66;100149.06;5081850;28;20099;-63
2024/04/05 03:19:53;;;;;;;3.22;1.63;;;;;;;12.81;57.20;100150.41;5080651;28;20032;-63
2024/04/05 03:22:19;;;;;;;3.55;1.63;;;;;;;13.13;56.17;100157.50;5081368;28;20326;-63
2024/04/05 03:24:44;;;;;;;4.55;1.90;;;;;;;13.20;56.08;100155.88;5080415;28;20322;-63
2024/04/05 03:27:10;;;;;;;1.45;1.35;;;;;;;13.20;56.19;100158.53;5081410;28;20048;-63
2024/04/05 03:29:35;;;;;;;1.90;1.48;;;;;;;12.98;56.65;100168.00;5080117;28;20330;-64
2024/04/05 03:32:03;;;;;;;3.72;1.50;;;;;;;12.85;57.17;100163.19;5080664;28;20040;-63
2024/04/05 03:34:29;;;;;;;3.95;1.38;;;;;;;12.86;57.09;100174.66;5080567;28;20063;-63
2024/04/05 03:36:54;;;;;;;3.72;1.75;;;;;;;13.09;56.63;100175.63;5078998;28;20345;-63
2024/04/05 03:39:20;;;;;;;4.95;2.03;;;;;;;13.00;57.19;100173.97;5079598;28;20053;-63
2024/04/05 03:41:45;;;;;;;4.88;2.00;;;;;;;13.05;57.16;100171.66;5078281;28;20037;-63
2024/04/05 03:44:11;;;;;;;5.05;1.90;;;;;;;12.91;57.48;100178.47;5082130;28;20040;-63
2024/04/05 03:46:38;;;;;;;5.13;2.30;;;;;;;13.06;57.45;100184.78;5078974;28;20032;-64
2024/04/05 03:49:06;;;;;;;4.97;1.65;;;;;;;13.21;56.80;100181.47;5080801;28;20170;-64
2024/04/05 03:51:31;;;;;;;7.47;2.35;;;;;;;13.35;56.33;100188.75;5079209;28;20108;-64
2024/04/05 03:53:57;;;;;;;9.10;1.98;;;;;;;13.51;55.94;100191.38;5080790;28;20032;-62
2024/04/05 03:56:23;;;;;;;5.25;1.75;;;;;;;13.55;55.31;100186.56;5079560;28;20048;-64
2024/04/05 03:58:49;;;;;;;4.47;1.73;;;;;;;13.54;55.64;100192.91;5080093;28;20067;-64
2024/04/05 04:01:15;;;;;;;5.47;2.00;;;;;;;13.37;55.35;100190.25;5079340;28;20048;-63
2024/04/05 04:03:43;;;;;;;5.38;2.15;;;;;;;13.39;55.63;100201.53;5078782;28;20040;-63
2024/04/05 04:06:09;;;;;;;5.70;1.83;;;;;;;13.47;55.27;100198.03;5079353;28;20056;-63
2024/04/05 04:08:36;;;;;;;4.45;2.00;;;;;;;13.65;54.31;100203.19;5079006;28;20349;-63
2024/04/05 04:11:01;;;;;;;5.65;2.03;;;;;;;13.68;54.39;100202.84;5080198;28;20071;-63
2024/04/05 04:13:27;;;;;;;6.93;1.77;;;;;;;13.76;53.72;100210.81;5079618;28;20076;-63
2024/04/05 04:15:53;;;;;;;7.60;1.92;;;;;;;13.83;53.83;100221.59;5077828;28;20072;-63
2024/04/05 04:18:18;;;;;;;8.18;2.40;;;;;;;13.92;53.62;100220.56;5079074;28;20044;-63
2024/04/05 04:20:44;;;;;;;9.05;2.75;;;;;;;13.99;53.24;100213.53;5077844;28;20028;-63
2024/04/05 04:23:09;;;;;;;10.25;2.97;;;;;;;14.01;53.39;100209.72;5078880;28;20214;-63
2024/04/05 04:25:35;;;;;;;7.35;2.40;;;;;;;14.12;52.79;100215.66;5077854;28;20047;-63
2024/04/05 04:28:01;;;;;;;7.95;1.95;;;;;;;13.85;53.52;100219.59;5078971;28;20032;-64
2024/04/05 04:30:28;;;;;;;8.65;2.15;;;;;;;13.79;53.87;100218.44;5079099;28;20044;-64
2024/04/05 04:32:54;;;;;;;13.02;3.10;;;;;;;14.04;53.52;100227.16;5079955;28;20024;-63
2024/04/05 04:35:19;;;;;;;7.95;2.67;;;;;;;14.05;53.04;100221.69;5078280;28;20063;-63
2024/04/05 04:37:45;;;;;;;5.50;2.17;;;;;;;14.02;53.02;100221.19;5078543;28;20037;-63
2024/04/05 04:40:13;;;;;;;8.25;2.10;;;;;;;14.02;53.30;100222.00;5078045;28;20353;-64
2024/04/05 04:42:39;;;;;;;8.43;1.90;;;;;;;14.05;53.30;100220.84;5078852;28;20339;-64
2024/04/05 04:45:05;;;;;;;7.68;2.08;;;;;;;14.17;53.21;100218.63;5079546;28;20033;-63
2024/04/05 04:47:31;;;;;;;9.43;2.30;;;;;;;14.19;52.75;100212.13;5077136;28;20029;-64
2024/04/05 04:49:58;;;;;;;9.20;2.65;;;;;;;14.19;52.74;100219.28;5080155;28;20040;-64
2024/04/05 04:52:24;;;;;;;6.57;2.75;;;;;;;14.27;52.62;100217.41;5077523;28;20028;-65
2024/04/05 04:54:50;;;;;;;21.52;3.70;;;;;;;14.35;52.60;100221.88;5080298;28;20056;-64
2024/04/05 04:57:16;;;;;;;6.28;2.33;;;;;;;14.39;52.36;100226.66;5077611;28;20032;-63
2024/04/05 04:59:42;;;;;;;8.50;3.13;;;;;;;14.47;52.58;100227.66;5080000;28;20031;-64
2024/04/05 05:02:08;;;;;;;5.03;2.67;;;;;;;14.53;52.26;100230.44;5079232;28;20036;-64
2024/04/05 05:04:34;;;;;;;8.27;2.40;;;;;;;14.62;51.95;100226.75;5078912;28;20051;-64
2024/04/05 05:07:01;;;;;;;7.72;2.30;;;;;;;14.70;51.97;100225.88;5081864;28;20037;-64
2024/04/05 05:09:27;;;;;;;6.97;2.55;;;;;;;14.81;51.34;100230.78;5087847;28;20372;-64
2024/04/05 05:11:52;;;;;;;5.25;1.95;;;;;;;14.91;51.06;100226.06;5098150;28;20039;-64
2024/04/05 05:14:18;;;;;;;5.38;2.33;;;;;;;15.02;51.08;100230.97;5098456;28;20348;-64
2024/04/05 05:16:43;;;;;;;4.28;2.33;;;;;;;15.22;50.62;100230.47;5082462;28;20032;-64
2024/04/05 05:19:09;;;;;;;4.35;2.28;;;;;;;15.42;50.34;100233.47;5078151;28;20327;-65
2024/04/05 05:21:35;;;;;;;7.10;2.42;;;;;;;15.63;50.09;100229.13;5078035;28;20032;-64
2024/04/05 05:24:01;;;;;;;5.90;2.40;;;;;;;15.93;49.83;100242.50;5078024;28;20318;-64
2024/04/05 05:26:27;;;;;;;2.92;1.98;;;;;;;16.25;49.26;100249.28;5078697;28;20067;-64
2024/04/05 05:28:53;;;;;;;4.97;2.05;;;;;;;16.47;48.44;100251.00;5077296;28;20151;-65
2024/04/05 05:31:18;;;;;;;2.83;1.60;;;;;;;16.64;47.58;100242.75;5077843;28;20067;-65
2024/04/05 05:33:44;;;;;;;4.40;2.00;;;;;;;16.71;46.98;100241.88;5077413;28;20033;-64
2024/04/05 05:36:09;;;;;;;6.25;2.05;;;;;;;16.86;46.88;100247.16;5078263;28;20032;-63
2024/04/05 05:38:35;;;;;;;5.30;2.13;;;;;;;17.10;46.48;100244.09;5078364;28;20036;-64
2024/04/05 05:41:01;;;;;;;6.63;1.98;;;;;;;17.15;46.27;100238.16;5077274;28;20273;-64
2024/04/05 05:43:26;;;;;;;4.78;1.80;;;;;;;17.13;46.00;100229.50;5078746;28;20036;-64
2024/04/05 05:45:51;;;;;;;5.03;2.10;;;;;;;17.32;46.15;100242.22;5076869;28;20046;-63
2024/04/05 05:48:17;;;;;;;5.50;2.25;;;;;;;17.59;45.14;100240.56;5078916;28;20082;-64
2024/04/05 05:50:42;;;;;;;10.93;2.95;;;;;;;17.89;44.63;100241.22;5077208;28;20044;-64
2024/04/05 05:53:08;;;;;;;7.50;2.80;;;;;;;18.21;44.31;100252.31;5078382;28;20250;-65
2024/04/05 05:55:33;;;;;;;4.43;2.70;;;;;;;18.41;43.70;100248.69;5077503;28;20040;-64
2024/04/05 05:57:59;;;;;;;12.38;3.00;;;;;;;18.58;43.77;100253.69;5078804;28;20419;-63
2024/04/05 06:00:25;;;;;;;4.47;2.58;;;;;;;18.74;43.56;100248.84;5077298;28;20052;-66
2024/04/05 06:02:50;;;;;;;5.85;2.72;;;;;;;19.02;43.51;100250.56;5078580;28;20207;-66
2024/04/05 06:05:19;;;;;;;6.13;2.15;;;;;;;19.29;42.53;100248.72;5077375;28;20041;-65
2024/04/05 06:07:45;;;;;;;5.47;1.95;;;;;;;19.49;41.11;100252.22;5077992;28;20335;-64
2024/04/05 06:10:11;;;;;;;4.95;1.63;;;;;;;19.60;40.90;100254.31;5078095;28;20119;-64
2024/04/05 06:12:39;;;;;;;7.18;2.08;;;;;;;19.65;40.70;100254.50;5078272;28;20329;-64
2024/04/05 06:15:05;;;;;;;3.92;1.75;;;;;;;19.72;40.70;100263.41;5078365;28;20051;-64
2024/04/05 06:17:34;;;;;;;3.10;1.20;;;;;;;19.76;40.72;100251.19;5077880;28;20131;-65
2024/04/05 06:20:00;;;;;;;6.10;1.98;;;;;;;19.94;40.62;100252.44;5078557;28;20037;-65
2024/04/05 06:22:29;;;;;;;4.75;1.75;;;;;;;20.15;39.98;100264.78;5076874;28;20144;-65
2024/04/05 06:24:55;;;;;;;2.88;1.40;;;;;;;20.28;39.60;100268.25;5078985;28;20044;-63
2024/04/05 06:27:21;;;;;;;8.52;1.80;;;;;;;20.53;39.72;100271.06;5077254;28;20063;-63
2024/04/05 06:29:54;;;;;;;4.63;1.38;;;;;;;20.58;39.37;100260.47;5078761;28;20047;-63
2024/04/05 06:32:20;;;;;;;5.05;1.60;;;;;;;20.94;39.06;100276.03;5078995;28;20036;-63
2024/04/05 06:34:46;;;;;;;2.83;1.25;;;;;;;21.00;38.39;100277.88;5081588;28;20055;-63
2024/04/05 06:37:15;;;;;;;4.13;1.30;;;;;;;21.19;38.03;100269.88;5080594;28;20046;-64
2024/04/05 06:39:41;;;;;;;3.55;1.13;;;;;;;21.12;36.82;100272.63;5082103;28;20040;-64
2024/04/05 06:42:07;;;;;;;4.32;1.20;;;;;;;21.39;37.07;100265.19;5080320;28;20073;-64
2024/04/05 06:44:39;;;;;;;2.47;0.90;;;;;;;21.51;35.20;100263.44;5082514;28;20271;-66
2024/04/05 06:47:08;;;;;;;5.03;1.52;;;;;;;21.53;35.47;100266.72;5080513;28;20242;-64
2024/04/05 06:49:35;;;;;;;6.15;1.70;;;;;;;21.61;35.83;100271.00;5082268;28;20032;-65
2024/04/05 06:52:04;;;;;;;3.88;1.20;;;;;;;21.62;35.81;100268.09;5080245;28;20043;-64
2024/04/05 06:54:34;;;;;;;3.45;1.40;;;;;;;21.70;35.96;100272.38;5080993;28;20103;-65
2024/04/05 06:57:00;;;;;;;3.45;1.13;;;;;;;21.89;35.01;100275.94;5080428;28;20028;-65
2024/04/05 06:59:25;;;;;;;4.10;1.63;;;;;;;21.99;34.81;100281.66;5080437;28;20321;-64
2024/04/05 07:01:53;;;;;;;1.85;1.08;;;;;;;21.93;34.73;100274.47;5081578;28;20044;-64
2024/04/05 07:04:23;;;;;;;3.45;1.50;;;;;;;21.90;35.24;100272.22;5079495;28;20108;-64
2024/04/05 07:06:52;;;;;;;2.83;1.20;;;;;;;22.04;34.63;100281.00;5082207;28;20102;-65
2024/04/05 07:09:22;;;;;;;2.42;1.10;;;;;;;22.16;35.19;100287.31;5079531;28;20071;-64
2024/04/05 07:11:48;;;;;;;3.40;1.40;;;;;;;22.27;35.59;100284.69;5081811;28;20055;-64
2024/04/05 07:14:18;;;;;;;2.45;1.00;;;;;;;22.19;34.89;100279.59;5080185;28;20040;-64
2024/04/05 07:16:48;;;;;;;4.55;1.60;;;;;;;22.33;35.14;100291.06;5081531;28;20040;-65
2024/04/05 07:19:17;;;;;;;4.57;1.98;;;;;;;22.52;34.74;100284.59;5079826;28;20032;-65
2024/04/05 07:21:46;;;;;;;3.03;1.27;;;;;;;22.69;35.06;100294.75;5081658;28;20109;-64
2024/04/05 07:24:13;;;;;;;3.95;1.27;;;;;;;22.88;33.92;100296.41;5079951;28;20036;-65
2024/04/05 07:26:38;;;;;;;3.95;1.00;;;;;;;22.80;34.04;100291.31;5080447;28;20043;-65
2024/04/05 07:29:04;;;;;;;2.63;1.00;;;;;;;22.58;33.41;100297.19;5080098;28;20048;-65
2024/04/05 07:31:30;;;;;;;3.40;1.02;;;;;;;22.36;34.36;100296.00;5081376;28;20079;-64
2024/04/05 07:33:55;;;;;;;3.97;1.10;;;;;;;22.11;34.54;100298.78;5079642;28;20040;-64
2024/04/05 07:36:21;;;;;;;2.55;0.90;;;;;;;22.08;34.98;100304.63;5080839;28;20048;-64
2024/04/05 07:38:49;;;;;;;2.20;0.88;;;;;;;21.94;35.60;100300.38;5078691;28;20183;-64
2024/04/05 07:41:14;;;;;;;3.75;1.25;;;;;;;21.95;35.40;100308.25;5079893;28;20551;-64
2024/04/05 07:43:41;;;;;;;3.03;0.98;;;;;;;21.91;35.52;100309.72;5079480;28;20047;-64
2024/04/05 07:46:07;;;;;;;2.90;1.00;;;;;;;21.91;35.81;100311.59;5079003;28;20033;-64
2024/04/05 07:48:33;;;;;;;2.47;0.95;;;;;;;21.93;35.23;100302.25;5081051;28;20115;-64
2024/04/05 07:51:02;;;;;;;2.95;1.00;;;;;;;21.80;35.49;100310.44;5079164;28;20043;-64
2024/04/05 07:53:28;;;;;;;4.25;0.93;;;;;;;21.68;35.47;100310.31;5080407;28;20035;-64
2024/04/05 07:55:53;;;;;;;4.32;1.23;;;;;;;21.65;35.63;100318.84;5079291;28;20225;-64
2024/04/05 07:58:22;;;;;;;2.75;0.77;;;;;;;21.65;36.49;100315.34;5080629;28;20037;-64
2024/04/05 08:00:49;;;;;;;2.53;1.00;;;;;;;21.69;36.51;100308.47;5078846;28;20370;-64
2024/04/05 08:03:15;;;;;;;4.28;1.10;;;;;;;21.66;36.72;100314.28;5079805;28;20376;-64
2024/04/05 08:05:40;;;;;;;3.08;1.52;;;;;;;21.66;36.05;100312.41;5079050;28;20262;-64
2024/04/05 08:08:08;;;;;;;5.43;1.48;;;;;;;21.63;36.45;100314.72;5080649;28;20032;-65
2024/04/05 08:10:33;;;;;;;2.08;1.20;;;;;;;21.65;36.56;100300.00;5079999;28;20382;-64
2024/04/05 08:12:59;;;;;;;4.93;1.20;;;;;;;21.66;36.72;100314.28;5078973;28;20086;-64
2024/04/05 08:15:26;;;;;;;1.83;1.20;;;;;;;21.60;37.94;100305.22;5079527;28;20422;-64
2024/04/05 08:17:51;;;;;;;1.50;0.75;;;;;;;21.45;36.50;100314.66;5079265;28;20227;-65
2024/04/05 08:20:18;;;;;;;2.38;0.98;;;;;;;21.52;37.05;100318.13;5079252;28;20270;-64
2024/04/05 08:22:44;;;;;;;2.95;1.20;;;;;;;21.56;37.57;100311.25;5078124;28;20048;-64
2024/04/05 08:25:09;;;;;;;2.20;0.95;;;;;;;21.60;37.31;100307.91;5079475;28;20028;-64
2024/04/05 08:27:36;;;;;;;3.08;1.23;;;;;;;21.63;36.95;100312.03;5077890;28;20032;-64
2024/04/05 08:30:02;;;;;;;3.47;1.15;;;;;;;21.64;36.44;100311.81;5079590;28;20032;-65
2024/04/05 08:32:28;;;;;;;1.40;1.10;;;;;;;21.65;36.73;100312.63;5078311;28;20248;-64
2024/04/05 08:34:53;;;;;;;2.80;1.00;;;;;;;21.66;36.30;100316.97;5079595;28;20097;-65
2024/04/05 08:37:19;;;;;;;3.83;1.20;;;;;;;21.73;36.28;100312.34;5081905;28;20068;-64
2024/04/05 08:39:44;;;;;;;2.20;1.20;;;;;;;21.77;36.62;100312.75;5080698;28;20074;-64
2024/04/05 08:42:14;;;;;;;3.05;1.15;;;;;;;21.72;36.74;100299.94;5080932;28;20329;-63
2024/04/05 08:44:42;;;;;;;3.50;1.05;;;;;;;21.97;37.30;100313.41;5078570;28;20051;-65
2024/04/05 08:47:11;;;;;;;2.50;0.90;;;;;;;21.97;36.19;100295.34;5088197;28;20051;-64
2024/04/05 08:49:37;;;;;;;1.95;0.90;;;;;;;22.10;36.21;100305.22;5098403;28;20313;-64
2024/04/05 08:52:03;;;;;;;7.88;1.90;;;;;;;22.13;35.27;100303.94;5091527;28;20047;-63
2024/04/05 08:54:33;;;;;;;5.10;1.15;;;;;;;22.14;36.00;100306.41;5077645;28;20040;-64
2024/04/05 08:57:00;;;;;;;2.22;1.30;;;;;;;22.22;36.32;100303.41;5077658;28;20050;-64
2024/04/05 08:59:30;;;;;;;1.55;0.80;;;;;;;22.27;35.43;100303.56;5077635;28;20221;-64
2024/04/05 09:01:58;;;;;;;10.00;2.38;;;;;;;22.44;35.40;100298.41;5078467;28;20033;-64
2024/04/05 09:04:27;;;;;;;5.85;1.40;;;;;;;22.65;35.20;100294.41;5077728;28;20101;-65
2024/04/05 09:06:53;;;;;;;7.32;2.45;;;;;;;22.80;35.06;100291.31;5078001;28;20043;-64
2024/04/05 09:09:28;;;;;;;1.67;0.95;;;;;;;23.07;34.80;100286.41;5077202;28;20044;-64
2024/04/05 09:12:03;;;;;;;4.85;0.85;;;;;;;23.27;34.55;100288.78;5077765;28;20036;-64
2024/04/05 09:14:29;;;;;;;0.90;0.75;;;;;;;23.37;33.79;100281.75;5077027;28;20099;-64
2024/04/05 09:16:56;;;;;;;2.88;1.08;;;;;;;23.55;34.32;100281.69;5078057;28;20036;-64
2024/04/05 09:19:22;;;;;;;1.52;0.70;;;;;;;23.65;33.16;100277.59;5076030;28;20119;-64
2024/04/05 09:21:48;;;;;;;2.42;0.82;;;;;;;23.69;33.18;100276.06;5078304;28;20048;-64
2024/04/05 09:24:15;;;;;;;1.88;1.05;;;;;;;23.63;33.60;100272.41;5077331;28;20040;-64
2024/04/05 09:26:40;;;;;;;3.13;0.60;;;;;;;23.50;33.07;100278.03;5077337;28;20347;-64
2024/04/05 09:29:13;;;;;;;1.80;0.85;;;;;;;23.47;33.60;100271.19;5076569;28;20103;-64
2024/04/05 09:31:39;;;;;;;0.73;0.65;;;;;;;23.46;33.19;100274.13;5077773;28;20123;-65
2024/04/05 09:34:14;;;;;;;2.95;1.00;;;;;;;23.54;32.99;100273.78;5078015;28;20259;-64
2024/04/05 09:36:40;;;;;;;1.17;0.60;;;;;;;23.54;32.93;100271.09;5077004;28;20043;-64
2024/04/05 09:39:09;;;;;;;0.77;0.75;;;;;;;23.48;32.38;100272.03;5076660;28;20041;-64
2024/04/05 09:41:35;;;;;;;1.20;0.73;;;;;;;23.38;32.60;100277.19;5076881;28;20033;-65
2024/04/05 09:44:06;;;;;;;0.95;0.70;;;;;;;23.25;32.93;100273.63;5077037;28;20042;-65
2024/04/05 09:46:33;;;;;;;6.97;0.90;;;;;;;23.19;33.27;100269.16;5076912;28;20338;-64
2024/04/05 09:48:59;;;;;;;2.53;1.15;;;;;;;23.14;33.99;100273.63;5082180;28;20097;-64
2024/04/05 09:51:33;;;;;;;4.68;1.10;;;;;;;23.03;34.05;100272.53;5097417;28;20361;-64
2024/04/05 09:54:03;;;;;;;3.28;0.82;;;;;;;22.91;33.91;100269.78;5094638;28;20062;-64
2024/04/05 09:56:32;;;;;;;3.70;0.70;;;;;;;22.78;34.04;100272.63;5074834;28;20090;-64
2024/04/05 09:58:58;;;;;;;4.57;0.70;;;;;;;22.75;33.89;100273.06;5078365;28;20081;-64
2024/04/05 10:01:24;;;;;;;1.60;0.70;;;;;;;22.78;34.47;100267.22;5096561;28;20077;-64
2024/04/05 10:03:50;;;;;;;1.33;0.73;;;;;;;22.78;34.41;100267.22;5097534;28;20040;-64
2024/04/05 10:06:17;;;;;;;1.33;0.60;;;;;;;22.73;34.54;100268.97;5078867;28;20404;-64
2024/04/05 10:08:43;;;;;;;3.42;0.77;;;;;;;22.74;34.05;100265.22;5081675;28;20036;-64
2024/04/05 10:11:13;;;;;;;2.85;0.82;;;;;;;22.78;34.25;100264.53;5095865;28;20039;-64
2024/04/05 10:13:39;;;;;;;1.83;0.70;;;;;;;22.81;33.99;100271.38;5101622;28;20184;-64
2024/04/05 10:16:05;;;;;;;2.65;0.88;;;;;;;22.73;33.86;100266.25;5086949;28;20910;-64
2024/04/05 10:18:39;;;;;;;1.33;0.77;;;;;;;22.71;33.90;100254.88;5081204;28;20357;-64
2024/04/05 10:21:09;;;;;;;1.65;0.57;;;;;;;22.81;33.46;100265.97;5092930;28;20032;-64
2024/04/05 10:23:40;;;;;;;2.55;0.90;;;;;;;22.88;33.95;100259.41;5101588;28;20046;-64
2024/04/05 10:26:15;;;;;;;2.97;0.65;;;;;;;22.96;33.97;100260.19;5090753;28;20044;-63
2024/04/05 10:28:44;;;;;;;1.55;0.60;;;;;;;23.02;32.96;100254.69;5080915;28;20044;-63
2024/04/05 10:31:13;;;;;;;0.90;0.55;;;;;;;23.04;33.01;100265.25;5080644;28;20338;-64
2024/04/05 10:33:38;;;;;;;0.50;0.35;;;;;;;22.99;32.26;100248.91;5081202;28;20059;-64
2024/04/05 10:36:05;;;;;;;2.83;0.85;;;;;;;23.01;33.06;100263.00;5080863;28;20350;-64
2024/04/05 10:38:33;;;;;;;1.52;0.40;;;;;;;22.75;32.27;100256.88;5080596;28;20338;-64
2024/04/05 10:41:00;;;;;;;0.68;0.30;;;;;;;22.65;32.60;100258.47;5085344;28;20056;-64
2024/04/05 10:43:26;;;;;;;1.00;0.30;;;;;;;22.62;32.88;100252.50;5100923;28;20531;-64
2024/04/05 10:45:57;;;;;;;0.43;0.43;;;;;;;22.52;32.36;100222.53;5099127;28;20036;-64
2024/04/05 10:48:23;;;;;;;0.68;0.30;;;;;;;22.77;32.87;100253.94;5080030;28;20071;-64
2024/04/05 10:50:49;;;;;;;0.38;0.38;;;;;;;22.87;33.20;100248.84;5081160;28;20051;-64
2024/04/05 10:53:16;;;;;;;2.42;0.50;;;;;;;22.95;32.70;100250.44;5099402;28;20039;-64
2024/04/05 10:55:43;;;;;;;0.88;0.40;;;;;;;22.96;32.35;100249.38;5101070;28;20169;-64
2024/04/05 10:58:10;;;;;;;0.93;0.40;;;;;;;23.13;32.22;100237.69;5082362;28;20316;-64
2024/04/05 11:00:37;;;;;;;2.13;0.40;;;;;;;23.28;31.94;100236.41;5080821;28;20355;-64
2024/04/05 11:03:04;;;;;;;0.85;0.40;;;;;;;23.28;30.84;100229.13;5079087;28;20032;-64
2024/04/05 11:05:30;;;;;;;0.30;0.30;;;;;;;23.37;30.41;100229.59;5079361;28;20094;-64
2024/04/05 11:07:59;;;;;;;0.73;0.73;;;;;;;23.44;30.73;100228.44;5079907;28;20037;-65
2024/04/05 11:10:29;;;;;;;0.88;0.50;;;;;;;23.46;30.89;100230.91;5080475;28;20103;-64
2024/04/05 11:12:55;;;;;;;1.02;0.60;;;;;;;23.56;30.05;100226.59;5079659;28;20040;-64
2024/04/05 11:15:21;;;;;;;0.38;0.30;;;;;;;23.53;30.56;100226.19;5080011;28;20051;-64
2024/04/05 11:18:00;;;;;;;10.02;1.33;;;;;;;23.64;30.69;100225.41;5078658;28;20092;-64
2024/04/05 11:20:29;;;;;;;1.63;0.40;;;;;;;23.65;30.29;100220.81;5079866;28;20048;-64